sensor_id;sensor_type;location;lat;lon;timestamp;P1;durP1;ratioP1;P2;durP2;ratioP2
10904;SDS011;5505;51.450;9.254;2023-10-19T00:02:28;11.05;;;9.93;;
10904;SDS011;5505;51.450;9.254;2023-10-19T00:05:16;11.60;;;9.37;;
10904;SDS011;5505;51.450;9.254;2023-10-19T00:08:04;10.43;;;8.40;;
10904;SDS011;5505;51.450;9.254;2023-10-19T00:10:59;9.57;;;8.23;;
10904;SDS011;5505;51.450;9.254;2023-10-19T00:13:48;12.13;;;7.97;;
10904;SDS011;5505;51.450;9.254;2023-10-19T00:16:35;9.47;;;7.47;;
10904;SDS011;5505;51.450;9.254;2023-10-19T00:19:21;8.90;;;7.80;;
10904;SDS011;5505;51.450;9.254;2023-10-19T00:22:14;9.03;;;7.40;;
10904;SDS011;5505;51.450;9.254;2023-10-19T00:25:06;12.47;;;7.60;;
10904;SDS011;5505;51.450;9.254;2023-10-19T00:27:58;9.60;;;7.23;;
10904;SDS011;5505;51.450;9.254;2023-10-19T00:30:48;10.10;;;7.43;;
10904;SDS011;5505;51.450;9.254;2023-10-19T00:33:38;9.73;;;7.90;;
10904;SDS011;5505;51.450;9.254;2023-10-19T00:36:25;10.10;;;7.90;;
10904;SDS011;5505;51.450;9.254;2023-10-19T00:39:17;12.83;;;8.07;;
10904;SDS011;5505;51.450;9.254;2023-10-19T00:42:07;10.10;;;7.80;;
10904;SDS011;5505;51.450;9.254;2023-10-19T00:44:53;9.20;;;7.30;;
10904;SDS011;5505;51.450;9.254;2023-10-19T00:47:47;9.27;;;7.80;;
10904;SDS011;5505;51.450;9.254;2023-10-19T00:50:38;10.57;;;7.60;;
10904;SDS011;5505;51.450;9.254;2023-10-19T00:53:25;9.17;;;7.67;;
10904;SDS011;5505;51.450;9.254;2023-10-19T00:56:14;9.87;;;7.87;;
10904;SDS011;5505;51.450;9.254;2023-10-19T00:59:04;10.57;;;7.50;;
10904;SDS011;5505;51.450;9.254;2023-10-19T01:01:58;11.80;;;8.27;;
10904;SDS011;5505;51.450;9.254;2023-10-19T01:05:01;9.40;;;8.03;;
10904;SDS011;5505;51.450;9.254;2023-10-19T01:07:50;10.13;;;7.67;;
10904;SDS011;5505;51.450;9.254;2023-10-19T01:10:42;9.60;;;7.90;;
10904;SDS011;5505;51.450;9.254;2023-10-19T01:13:32;10.10;;;8.10;;
10904;SDS011;5505;51.450;9.254;2023-10-19T01:16:19;10.10;;;7.93;;
10904;SDS011;5505;51.450;9.254;2023-10-19T01:19:07;9.77;;;7.53;;
10904;SDS011;5505;51.450;9.254;2023-10-19T01:21:53;9.57;;;8.23;;
10904;SDS011;5505;51.450;9.254;2023-10-19T01:24:47;12.83;;;9.07;;
10904;SDS011;5505;51.450;9.254;2023-10-19T01:27:35;11.37;;;8.70;;
10904;SDS011;5505;51.450;9.254;2023-10-19T01:30:24;10.00;;;8.30;;
10904;SDS011;5505;51.450;9.254;2023-10-19T01:33:12;10.73;;;8.33;;
10904;SDS011;5505;51.450;9.254;2023-10-19T01:36:00;10.30;;;8.73;;
10904;SDS011;5505;51.450;9.254;2023-10-19T01:39:09;9.63;;;8.50;;
10904;SDS011;5505;51.450;9.254;2023-10-19T01:41:58;10.03;;;7.90;;
10904;SDS011;5505;51.450;9.254;2023-10-19T01:44:44;10.00;;;7.63;;
10904;SDS011;5505;51.450;9.254;2023-10-19T01:47:31;10.30;;;8.30;;
10904;SDS011;5505;51.450;9.254;2023-10-19T01:50:18;9.80;;;8.13;;
10904;SDS011;5505;51.450;9.254;2023-10-19T01:53:04;10.40;;;8.50;;
10904;SDS011;5505;51.450;9.254;2023-10-19T01:55:58;12.00;;;8.77;;
10904;SDS011;5505;51.450;9.254;2023-10-19T01:58:45;12.33;;;9.47;;
10904;SDS011;5505;51.450;9.254;2023-10-19T02:01:32;11.40;;;8.60;;
10904;SDS011;5505;51.450;9.254;2023-10-19T02:04:18;11.57;;;8.53;;
10904;SDS011;5505;51.450;9.254;2023-10-19T02:07:07;12.43;;;9.37;;
10904;SDS011;5505;51.450;9.254;2023-10-19T02:09:57;10.27;;;9.13;;
10904;SDS011;5505;51.450;9.254;2023-10-19T02:12:45;9.27;;;8.23;;
10904;SDS011;5505;51.450;9.254;2023-10-19T02:15:34;10.73;;;8.53;;
10904;SDS011;5505;51.450;9.254;2023-10-19T02:18:20;10.13;;;8.60;;
10904;SDS011;5505;51.450;9.254;2023-10-19T02:21:07;10.17;;;8.73;;
10904;SDS011;5505;51.450;9.254;2023-10-19T02:23:53;11.60;;;9.10;;
10904;SDS011;5505;51.450;9.254;2023-10-19T02:26:40;15.17;;;9.73;;
10904;SDS011;5505;51.450;9.254;2023-10-19T02:29:26;11.17;;;9.03;;
10904;SDS011;5505;51.450;9.254;2023-10-19T02:32:15;11.57;;;8.43;;
10904;SDS011;5505;51.450;9.254;2023-10-19T02:35:03;10.13;;;8.63;;
10904;SDS011;5505;51.450;9.254;2023-10-19T02:37:51;11.87;;;8.83;;
10904;SDS011;5505;51.450;9.254;2023-10-19T02:40:36;10.70;;;8.67;;
10904;SDS011;5505;51.450;9.254;2023-10-19T02:43:24;10.03;;;8.67;;
10904;SDS011;5505;51.450;9.254;2023-10-19T02:46:11;10.07;;;8.70;;
10904;SDS011;5505;51.450;9.254;2023-10-19T02:49:01;10.53;;;8.27;;
10904;SDS011;5505;51.450;9.254;2023-10-19T02:51:50;9.67;;;8.20;;
10904;SDS011;5505;51.450;9.254;2023-10-19T02:54:37;8.87;;;7.27;;
10904;SDS011;5505;51.450;9.254;2023-10-19T02:57:24;9.13;;;8.10;;
10904;SDS011;5505;51.450;9.254;2023-10-19T03:00:12;9.57;;;8.57;;
10904;SDS011;5505;51.450;9.254;2023-10-19T03:02:59;9.57;;;7.90;;
10904;SDS011;5505;51.450;9.254;2023-10-19T03:05:47;10.03;;;8.40;;
10904;SDS011;5505;51.450;9.254;2023-10-19T03:08:36;10.60;;;8.70;;
10904;SDS011;5505;51.450;9.254;2023-10-19T03:11:22;9.47;;;8.03;;
10904;SDS011;5505;51.450;9.254;2023-10-19T03:14:09;10.13;;;8.57;;
10904;SDS011;5505;51.450;9.254;2023-10-19T03:16:56;9.50;;;8.40;;
10904;SDS011;5505;51.450;9.254;2023-10-19T03:19:44;10.03;;;8.70;;
10904;SDS011;5505;51.450;9.254;2023-10-19T03:22:32;12.33;;;8.47;;
10904;SDS011;5505;51.450;9.254;2023-10-19T03:25:19;10.93;;;8.83;;
10904;SDS011;5505;51.450;9.254;2023-10-19T03:28:20;9.87;;;7.80;;
10904;SDS011;5505;51.450;9.254;2023-10-19T03:31:10;9.47;;;8.23;;
10904;SDS011;5505;51.450;9.254;2023-10-19T03:34:02;10.00;;;8.17;;
10904;SDS011;5505;51.450;9.254;2023-10-19T03:36:51;9.43;;;7.77;;
10904;SDS011;5505;51.450;9.254;2023-10-19T03:39:40;11.87;;;8.03;;
10904;SDS011;5505;51.450;9.254;2023-10-19T03:42:31;10.00;;;8.13;;
10904;SDS011;5505;51.450;9.254;2023-10-19T03:45:18;8.73;;;7.50;;
10904;SDS011;5505;51.450;9.254;2023-10-19T03:48:07;12.60;;;8.40;;
10904;SDS011;5505;51.450;9.254;2023-10-19T03:50:54;9.97;;;7.67;;
10904;SDS011;5505;51.450;9.254;2023-10-19T03:53:41;9.13;;;7.93;;
10904;SDS011;5505;51.450;9.254;2023-10-19T03:56:40;10.13;;;8.20;;
10904;SDS011;5505;51.450;9.254;2023-10-19T03:59:26;9.80;;;7.20;;
10904;SDS011;5505;51.450;9.254;2023-10-19T04:02:18;9.60;;;8.20;;
10904;SDS011;5505;51.450;9.254;2023-10-19T04:05:06;9.83;;;8.10;;
10904;SDS011;5505;51.450;9.254;2023-10-19T04:07:54;11.67;;;8.60;;
10904;SDS011;5505;51.450;9.254;2023-10-19T04:10:42;11.53;;;8.37;;
10904;SDS011;5505;51.450;9.254;2023-10-19T04:13:53;9.97;;;8.20;;
10904;SDS011;5505;51.450;9.254;2023-10-19T04:16:40;10.00;;;8.80;;
10904;SDS011;5505;51.450;9.254;2023-10-19T04:19:28;10.23;;;8.33;;
10904;SDS011;5505;51.450;9.254;2023-10-19T04:22:15;9.87;;;8.30;;
10904;SDS011;5505;51.450;9.254;2023-10-19T04:25:07;10.37;;;8.30;;
10904;SDS011;5505;51.450;9.254;2023-10-19T04:27:57;8.60;;;7.37;;
10904;SDS011;5505;51.450;9.254;2023-10-19T04:30:46;8.00;;;5.70;;
10904;SDS011;5505;51.450;9.254;2023-10-19T04:33:33;7.67;;;6.40;;
10904;SDS011;5505;51.450;9.254;2023-10-19T04:36:21;10.77;;;7.20;;
10904;SDS011;5505;51.450;9.254;2023-10-19T04:39:08;9.43;;;6.43;;
10904;SDS011;5505;51.450;9.254;2023-10-19T04:41:58;6.00;;;5.40;;
10904;SDS011;5505;51.450;9.254;2023-10-19T04:44:45;6.03;;;4.87;;
10904;SDS011;5505;51.450;9.254;2023-10-19T04:47:34;6.77;;;5.33;;
10904;SDS011;5505;51.450;9.254;2023-10-19T04:50:21;7.23;;;5.43;;
10904;SDS011;5505;51.450;9.254;2023-10-19T04:53:08;6.57;;;5.43;;
10904;SDS011;5505;51.450;9.254;2023-10-19T04:55:55;6.60;;;5.40;;
10904;SDS011;5505;51.450;9.254;2023-10-19T04:58:41;9.53;;;8.40;;
10904;SDS011;5505;51.450;9.254;2023-10-19T05:01:28;6.87;;;5.37;;
10904;SDS011;5505;51.450;9.254;2023-10-19T05:04:18;8.53;;;7.10;;
10904;SDS011;5505;51.450;9.254;2023-10-19T05:07:05;7.47;;;6.67;;
10904;SDS011;5505;51.450;9.254;2023-10-19T05:09:56;7.30;;;6.10;;
10904;SDS011;5505;51.450;9.254;2023-10-19T05:12:45;8.20;;;5.90;;
10904;SDS011;5505;51.450;9.254;2023-10-19T05:15:31;6.77;;;6.07;;
10904;SDS011;5505;51.450;9.254;2023-10-19T05:18:19;6.03;;;5.37;;
10904;SDS011;5505;51.450;9.254;2023-10-19T05:21:07;6.33;;;5.37;;
10904;SDS011;5505;51.450;9.254;2023-10-19T05:23:55;5.93;;;5.30;;
10904;SDS011;5505;51.450;9.254;2023-10-19T05:26:42;5.60;;;5.10;;
10904;SDS011;5505;51.450;9.254;2023-10-19T05:29:30;6.47;;;5.40;;
10904;SDS011;5505;51.450;9.254;2023-10-19T05:32:18;5.60;;;5.00;;
10904;SDS011;5505;51.450;9.254;2023-10-19T05:35:05;6.27;;;5.43;;
10904;SDS011;5505;51.450;9.254;2023-10-19T05:37:53;5.70;;;4.87;;
10904;SDS011;5505;51.450;9.254;2023-10-19T05:40:41;7.27;;;5.63;;
10904;SDS011;5505;51.450;9.254;2023-10-19T05:43:29;5.87;;;5.27;;
10904;SDS011;5505;51.450;9.254;2023-10-19T05:46:16;6.13;;;5.53;;
10904;SDS011;5505;51.450;9.254;2023-10-19T05:49:03;6.60;;;5.30;;
10904;SDS011;5505;51.450;9.254;2023-10-19T05:51:51;7.20;;;5.07;;
10904;SDS011;5505;51.450;9.254;2023-10-19T05:54:39;5.80;;;5.20;;
10904;SDS011;5505;51.450;9.254;2023-10-19T05:57:26;5.53;;;4.63;;
10904;SDS011;5505;51.450;9.254;2023-10-19T06:00:13;7.27;;;5.37;;
10904;SDS011;5505;51.450;9.254;2023-10-19T06:03:00;5.43;;;4.93;;
10904;SDS011;5505;51.450;9.254;2023-10-19T06:05:49;6.10;;;5.50;;
10904;SDS011;5505;51.450;9.254;2023-10-19T06:08:39;6.83;;;5.50;;
10904;SDS011;5505;51.450;9.254;2023-10-19T06:11:29;6.07;;;5.47;;
10904;SDS011;5505;51.450;9.254;2023-10-19T06:14:17;6.13;;;5.33;;
10904;SDS011;5505;51.450;9.254;2023-10-19T06:17:04;6.30;;;5.70;;
10904;SDS011;5505;51.450;9.254;2023-10-19T06:19:51;6.13;;;5.40;;
10904;SDS011;5505;51.450;9.254;2023-10-19T06:22:38;6.73;;;5.57;;
10904;SDS011;5505;51.450;9.254;2023-10-19T06:25:24;5.97;;;5.37;;
10904;SDS011;5505;51.450;9.254;2023-10-19T06:28:12;7.70;;;5.30;;
10904;SDS011;5505;51.450;9.254;2023-10-19T06:31:00;7.63;;;5.67;;
10904;SDS011;5505;51.450;9.254;2023-10-19T06:33:47;7.37;;;5.53;;
10904;SDS011;5505;51.450;9.254;2023-10-19T06:36:34;7.97;;;5.80;;
10904;SDS011;5505;51.450;9.254;2023-10-19T06:39:20;7.80;;;6.23;;
10904;SDS011;5505;51.450;9.254;2023-10-19T06:42:08;7.97;;;6.27;;
10904;SDS011;5505;51.450;9.254;2023-10-19T06:45:00;8.20;;;5.83;;
10904;SDS011;5505;51.450;9.254;2023-10-19T06:47:47;9.13;;;6.20;;
10904;SDS011;5505;51.450;9.254;2023-10-19T06:50:35;10.33;;;6.50;;
10904;SDS011;5505;51.450;9.254;2023-10-19T06:53:22;9.60;;;6.40;;
10904;SDS011;5505;51.450;9.254;2023-10-19T06:56:09;9.33;;;6.53;;
10904;SDS011;5505;51.450;9.254;2023-10-19T06:58:56;9.17;;;5.87;;
10904;SDS011;5505;51.450;9.254;2023-10-19T07:01:44;12.03;;;6.77;;
10904;SDS011;5505;51.450;9.254;2023-10-19T07:04:31;9.17;;;6.70;;
10904;SDS011;5505;51.450;9.254;2023-10-19T07:07:18;10.97;;;7.03;;
10904;SDS011;5505;51.450;9.254;2023-10-19T07:10:05;9.60;;;6.67;;
10904;SDS011;5505;51.450;9.254;2023-10-19T07:12:53;8.43;;;6.20;;
10904;SDS011;5505;51.450;9.254;2023-10-19T07:15:41;9.63;;;6.80;;
10904;SDS011;5505;51.450;9.254;2023-10-19T07:18:31;9.33;;;6.83;;
10904;SDS011;5505;51.450;9.254;2023-10-19T07:21:18;9.80;;;7.30;;
10904;SDS011;5505;51.450;9.254;2023-10-19T07:24:07;9.87;;;6.40;;
10904;SDS011;5505;51.450;9.254;2023-10-19T07:26:56;10.27;;;7.30;;
10904;SDS011;5505;51.450;9.254;2023-10-19T07:29:49;10.23;;;6.63;;
10904;SDS011;5505;51.450;9.254;2023-10-19T07:32:37;9.00;;;6.40;;
10904;SDS011;5505;51.450;9.254;2023-10-19T07:35:25;11.30;;;7.10;;
10904;SDS011;5505;51.450;9.254;2023-10-19T07:38:13;11.43;;;7.30;;
10904;SDS011;5505;51.450;9.254;2023-10-19T07:41:00;14.17;;;7.60;;
10904;SDS011;5505;51.450;9.254;2023-10-19T07:43:47;8.13;;;6.50;;
10904;SDS011;5505;51.450;9.254;2023-10-19T07:46:33;10.57;;;6.60;;
10904;SDS011;5505;51.450;9.254;2023-10-19T07:49:20;8.73;;;6.47;;
10904;SDS011;5505;51.450;9.254;2023-10-19T07:52:08;10.37;;;6.83;;
10904;SDS011;5505;51.450;9.254;2023-10-19T07:54:56;11.07;;;6.63;;
10904;SDS011;5505;51.450;9.254;2023-10-19T07:57:43;9.60;;;6.93;;
10904;SDS011;5505;51.450;9.254;2023-10-19T08:00:30;10.23;;;6.77;;
10904;SDS011;5505;51.450;9.254;2023-10-19T08:03:18;10.00;;;6.83;;
10904;SDS011;5505;51.450;9.254;2023-10-19T08:06:06;8.20;;;6.47;;
10904;SDS011;5505;51.450;9.254;2023-10-19T08:08:56;8.23;;;6.17;;
10904;SDS011;5505;51.450;9.254;2023-10-19T08:11:43;9.13;;;6.27;;
10904;SDS011;5505;51.450;9.254;2023-10-19T08:14:31;9.70;;;6.97;;
10904;SDS011;5505;51.450;9.254;2023-10-19T08:17:17;8.20;;;6.07;;
10904;SDS011;5505;51.450;9.254;2023-10-19T08:20:05;10.63;;;6.80;;
10904;SDS011;5505;51.450;9.254;2023-10-19T08:22:54;11.10;;;7.10;;
10904;SDS011;5505;51.450;9.254;2023-10-19T08:25:43;10.37;;;7.07;;
10904;SDS011;5505;51.450;9.254;2023-10-19T08:28:30;9.90;;;6.67;;
10904;SDS011;5505;51.450;9.254;2023-10-19T08:31:17;10.77;;;6.80;;
10904;SDS011;5505;51.450;9.254;2023-10-19T08:34:04;9.27;;;6.30;;
10904;SDS011;5505;51.450;9.254;2023-10-19T08:36:51;9.87;;;6.90;;
10904;SDS011;5505;51.450;9.254;2023-10-19T08:39:39;10.10;;;6.57;;
10904;SDS011;5505;51.450;9.254;2023-10-19T08:42:27;10.60;;;7.10;;
10904;SDS011;5505;51.450;9.254;2023-10-19T08:45:15;11.83;;;7.00;;
10904;SDS011;5505;51.450;9.254;2023-10-19T08:48:02;8.83;;;6.43;;
10904;SDS011;5505;51.450;9.254;2023-10-19T08:50:49;10.60;;;6.20;;
10904;SDS011;5505;51.450;9.254;2023-10-19T08:53:38;9.73;;;6.60;;
10904;SDS011;5505;51.450;9.254;2023-10-19T08:56:29;8.87;;;6.17;;
10904;SDS011;5505;51.450;9.254;2023-10-19T08:59:17;10.60;;;5.73;;
10904;SDS011;5505;51.450;9.254;2023-10-19T09:02:04;6.40;;;4.87;;
10904;SDS011;5505;51.450;9.254;2023-10-19T09:04:52;8.20;;;5.80;;
10904;SDS011;5505;51.450;9.254;2023-10-19T09:07:38;7.20;;;5.40;;
10904;SDS011;5505;51.450;9.254;2023-10-19T09:10:27;7.43;;;5.50;;
10904;SDS011;5505;51.450;9.254;2023-10-19T09:13:16;7.97;;;5.03;;
10904;SDS011;5505;51.450;9.254;2023-10-19T09:16:06;5.93;;;4.83;;
10904;SDS011;5505;51.450;9.254;2023-10-19T09:18:55;5.37;;;4.50;;
10904;SDS011;5505;51.450;9.254;2023-10-19T09:21:41;6.20;;;4.60;;
10904;SDS011;5505;51.450;9.254;2023-10-19T09:24:28;4.43;;;3.97;;
10904;SDS011;5505;51.450;9.254;2023-10-19T09:27:17;5.53;;;4.23;;
10904;SDS011;5505;51.450;9.254;2023-10-19T09:30:04;4.53;;;4.10;;
10904;SDS011;5505;51.450;9.254;2023-10-19T09:32:55;4.07;;;3.57;;
10904;SDS011;5505;51.450;9.254;2023-10-19T09:35:42;4.90;;;4.07;;
10904;SDS011;5505;51.450;9.254;2023-10-19T09:38:30;4.97;;;3.83;;
10904;SDS011;5505;51.450;9.254;2023-10-19T09:41:18;4.97;;;4.00;;
10904;SDS011;5505;51.450;9.254;2023-10-19T09:44:06;7.50;;;4.07;;
10904;SDS011;5505;51.450;9.254;2023-10-19T09:46:57;6.03;;;4.20;;
10904;SDS011;5505;51.450;9.254;2023-10-19T09:49:49;5.73;;;4.50;;
10904;SDS011;5505;51.450;9.254;2023-10-19T09:52:36;7.10;;;4.40;;
10904;SDS011;5505;51.450;9.254;2023-10-19T09:55:26;4.80;;;4.00;;
10904;SDS011;5505;51.450;9.254;2023-10-19T09:58:16;4.47;;;4.07;;
10904;SDS011;5505;51.450;9.254;2023-10-19T10:01:06;6.13;;;4.23;;
10904;SDS011;5505;51.450;9.254;2023-10-19T10:03:57;5.20;;;4.70;;
10904;SDS011;5505;51.450;9.254;2023-10-19T10:09:51;4.73;;;3.90;;
10904;SDS011;5505;51.450;9.254;2023-10-19T10:12:38;6.07;;;4.23;;
10904;SDS011;5505;51.450;9.254;2023-10-19T10:15:37;5.23;;;4.13;;
10904;SDS011;5505;51.450;9.254;2023-10-19T10:18:26;5.10;;;4.10;;
10904;SDS011;5505;51.450;9.254;2023-10-19T10:21:17;6.67;;;4.50;;
10904;SDS011;5505;51.450;9.254;2023-10-19T10:24:08;5.43;;;4.37;;
10904;SDS011;5505;51.450;9.254;2023-10-19T10:26:59;6.37;;;4.87;;
10904;SDS011;5505;51.450;9.254;2023-10-19T10:29:54;4.90;;;4.40;;
10904;SDS011;5505;51.450;9.254;2023-10-19T10:32:44;5.93;;;4.53;;
10904;SDS011;5505;51.450;9.254;2023-10-19T10:38:41;5.93;;;4.77;;
10904;SDS011;5505;51.450;9.254;2023-10-19T10:41:29;6.90;;;4.73;;
10904;SDS011;5505;51.450;9.254;2023-10-19T10:44:17;7.33;;;5.50;;
10904;SDS011;5505;51.450;9.254;2023-10-19T10:47:04;5.30;;;4.53;;
10904;SDS011;5505;51.450;9.254;2023-10-19T10:49:54;6.43;;;4.60;;
10904;SDS011;5505;51.450;9.254;2023-10-19T10:52:42;5.17;;;4.67;;
10904;SDS011;5505;51.450;9.254;2023-10-19T10:55:29;5.27;;;4.77;;
10904;SDS011;5505;51.450;9.254;2023-10-19T10:58:18;6.00;;;4.73;;
10904;SDS011;5505;51.450;9.254;2023-10-19T11:01:06;5.57;;;4.50;;
10904;SDS011;5505;51.450;9.254;2023-10-19T11:04:04;4.97;;;4.47;;
10904;SDS011;5505;51.450;9.254;2023-10-19T11:06:52;5.07;;;4.03;;
10904;SDS011;5505;51.450;9.254;2023-10-19T11:09:44;6.07;;;4.20;;
10904;SDS011;5505;51.450;9.254;2023-10-19T11:12:31;5.70;;;3.93;;
10904;SDS011;5505;51.450;9.254;2023-10-19T11:15:21;4.20;;;3.80;;
10904;SDS011;5505;51.450;9.254;2023-10-19T11:18:08;4.40;;;4.00;;
10904;SDS011;5505;51.450;9.254;2023-10-19T11:20:56;4.50;;;4.10;;
10904;SDS011;5505;51.450;9.254;2023-10-19T11:23:45;7.60;;;4.20;;
10904;SDS011;5505;51.450;9.254;2023-10-19T11:26:39;4.73;;;3.77;;
10904;SDS011;5505;51.450;9.254;2023-10-19T11:29:26;6.90;;;3.80;;
10904;SDS011;5505;51.450;9.254;2023-10-19T11:32:14;4.83;;;3.73;;
10904;SDS011;5505;51.450;9.254;2023-10-19T11:35:01;6.00;;;3.23;;
10904;SDS011;5505;51.450;9.254;2023-10-19T11:37:48;4.33;;;3.70;;
10904;SDS011;5505;51.450;9.254;2023-10-19T11:40:35;5.23;;;3.57;;
10904;SDS011;5505;51.450;9.254;2023-10-19T11:43:22;3.37;;;2.93;;
10904;SDS011;5505;51.450;9.254;2023-10-19T11:46:09;4.33;;;3.13;;
10904;SDS011;5505;51.450;9.254;2023-10-19T11:48:58;2.83;;;2.63;;
10904;SDS011;5505;51.450;9.254;2023-10-19T11:51:45;3.60;;;2.70;;
10904;SDS011;5505;51.450;9.254;2023-10-19T11:54:32;3.80;;;3.37;;
10904;SDS011;5505;51.450;9.254;2023-10-19T11:57:19;4.33;;;2.83;;
10904;SDS011;5505;51.450;9.254;2023-10-19T12:00:06;6.00;;;3.50;;
10904;SDS011;5505;51.450;9.254;2023-10-19T12:02:54;4.80;;;3.17;;
10904;SDS011;5505;51.450;9.254;2023-10-19T12:05:42;5.23;;;3.53;;
10904;SDS011;5505;51.450;9.254;2023-10-19T12:08:29;5.53;;;3.20;;
10904;SDS011;5505;51.450;9.254;2023-10-19T12:11:15;4.13;;;3.00;;
10904;SDS011;5505;51.450;9.254;2023-10-19T12:14:04;3.57;;;3.10;;
10904;SDS011;5505;51.450;9.254;2023-10-19T12:16:54;4.33;;;3.07;;
10904;SDS011;5505;51.450;9.254;2023-10-19T12:19:41;4.27;;;3.20;;
10904;SDS011;5505;51.450;9.254;2023-10-19T12:22:29;5.70;;;3.20;;
10904;SDS011;5505;51.450;9.254;2023-10-19T12:25:17;2.83;;;2.50;;
10904;SDS011;5505;51.450;9.254;2023-10-19T12:28:04;4.70;;;2.60;;
10904;SDS011;5505;51.450;9.254;2023-10-19T12:30:52;3.23;;;2.37;;
10904;SDS011;5505;51.450;9.254;2023-10-19T12:33:39;2.40;;;2.20;;
10904;SDS011;5505;51.450;9.254;2023-10-19T12:36:26;4.03;;;2.60;;
10904;SDS011;5505;51.450;9.254;2023-10-19T12:39:18;3.43;;;2.30;;
10904;SDS011;5505;51.450;9.254;2023-10-19T12:42:19;5.80;;;2.40;;
10904;SDS011;5505;51.450;9.254;2023-10-19T12:45:08;4.27;;;2.00;;
10904;SDS011;5505;51.450;9.254;2023-10-19T12:47:56;3.37;;;1.77;;
10904;SDS011;5505;51.450;9.254;2023-10-19T12:50:43;4.07;;;2.10;;
10904;SDS011;5505;51.450;9.254;2023-10-19T12:53:29;2.53;;;2.20;;
10904;SDS011;5505;51.450;9.254;2023-10-19T12:56:19;5.70;;;2.70;;
10904;SDS011;5505;51.450;9.254;2023-10-19T12:59:06;4.97;;;2.70;;
10904;SDS011;5505;51.450;9.254;2023-10-19T13:01:52;2.70;;;1.77;;
10904;SDS011;5505;51.450;9.254;2023-10-19T13:04:43;3.20;;;1.67;;
10904;SDS011;5505;51.450;9.254;2023-10-19T13:07:31;5.43;;;1.90;;
10904;SDS011;5505;51.450;9.254;2023-10-19T13:10:19;3.17;;;1.90;;
10904;SDS011;5505;51.450;9.254;2023-10-19T13:13:08;2.97;;;1.90;;
10904;SDS011;5505;51.450;9.254;2023-10-19T13:15:56;4.23;;;2.00;;
10904;SDS011;5505;51.450;9.254;2023-10-19T13:18:44;4.97;;;2.07;;
10904;SDS011;5505;51.450;9.254;2023-10-19T13:21:31;4.87;;;1.87;;
10904;SDS011;5505;51.450;9.254;2023-10-19T13:24:18;3.90;;;2.03;;
10904;SDS011;5505;51.450;9.254;2023-10-19T13:27:06;3.67;;;2.00;;
10904;SDS011;5505;51.450;9.254;2023-10-19T13:29:55;4.47;;;2.13;;
10904;SDS011;5505;51.450;9.254;2023-10-19T13:32:42;3.70;;;2.03;;
10904;SDS011;5505;51.450;9.254;2023-10-19T13:35:29;4.23;;;2.00;;
10904;SDS011;5505;51.450;9.254;2023-10-19T13:38:16;4.43;;;2.03;;
10904;SDS011;5505;51.450;9.254;2023-10-19T13:41:05;3.30;;;2.17;;
10904;SDS011;5505;51.450;9.254;2023-10-19T13:43:54;3.17;;;2.20;;
10904;SDS011;5505;51.450;9.254;2023-10-19T13:46:43;5.57;;;2.57;;
10904;SDS011;5505;51.450;9.254;2023-10-19T13:49:31;3.43;;;1.97;;
10904;SDS011;5505;51.450;9.254;2023-10-19T13:52:18;4.50;;;2.60;;
10904;SDS011;5505;51.450;9.254;2023-10-19T13:55:05;5.00;;;2.80;;
10904;SDS011;5505;51.450;9.254;2023-10-19T13:57:53;4.97;;;3.30;;
10904;SDS011;5505;51.450;9.254;2023-10-19T14:00:41;7.40;;;3.17;;
10904;SDS011;5505;51.450;9.254;2023-10-19T14:03:30;4.07;;;3.20;;
10904;SDS011;5505;51.450;9.254;2023-10-19T14:06:16;3.20;;;2.70;;
10904;SDS011;5505;51.450;9.254;2023-10-19T14:09:03;4.83;;;2.90;;
10904;SDS011;5505;51.450;9.254;2023-10-19T14:11:50;6.60;;;2.90;;
10904;SDS011;5505;51.450;9.254;2023-10-19T14:14:38;2.63;;;2.37;;
10904;SDS011;5505;51.450;9.254;2023-10-19T14:17:25;4.13;;;2.60;;
10904;SDS011;5505;51.450;9.254;2023-10-19T14:20:14;3.53;;;2.47;;
10904;SDS011;5505;51.450;9.254;2023-10-19T14:23:01;4.60;;;2.73;;
10904;SDS011;5505;51.450;9.254;2023-10-19T14:25:49;5.87;;;2.63;;
10904;SDS011;5505;51.450;9.254;2023-10-19T14:28:36;3.13;;;2.47;;
10904;SDS011;5505;51.450;9.254;2023-10-19T14:31:23;3.40;;;2.27;;
10904;SDS011;5505;51.450;9.254;2023-10-19T14:34:10;6.07;;;2.40;;
10904;SDS011;5505;51.450;9.254;2023-10-19T14:36:58;3.07;;;2.00;;
10904;SDS011;5505;51.450;9.254;2023-10-19T14:39:45;4.03;;;2.17;;
10904;SDS011;5505;51.450;9.254;2023-10-19T14:42:32;3.40;;;2.17;;
10904;SDS011;5505;51.450;9.254;2023-10-19T14:45:19;8.13;;;2.10;;
10904;SDS011;5505;51.450;9.254;2023-10-19T14:48:10;5.40;;;2.37;;
10904;SDS011;5505;51.450;9.254;2023-10-19T14:50:57;3.83;;;2.37;;
10904;SDS011;5505;51.450;9.254;2023-10-19T14:53:46;5.40;;;2.67;;
10904;SDS011;5505;51.450;9.254;2023-10-19T14:56:33;4.37;;;2.60;;
10904;SDS011;5505;51.450;9.254;2023-10-19T14:59:20;4.50;;;2.50;;
10904;SDS011;5505;51.450;9.254;2023-10-19T15:02:07;3.90;;;2.30;;
10904;SDS011;5505;51.450;9.254;2023-10-19T15:04:57;5.50;;;2.47;;
10904;SDS011;5505;51.450;9.254;2023-10-19T15:07:44;5.03;;;2.50;;
10904;SDS011;5505;51.450;9.254;2023-10-19T15:10:41;4.40;;;2.90;;
10904;SDS011;5505;51.450;9.254;2023-10-19T15:13:28;3.77;;;2.20;;
10904;SDS011;5505;51.450;9.254;2023-10-19T15:16:14;5.03;;;2.37;;
10904;SDS011;5505;51.450;9.254;2023-10-19T15:19:02;2.63;;;2.00;;
10904;SDS011;5505;51.450;9.254;2023-10-19T15:21:49;5.17;;;2.50;;
10904;SDS011;5505;51.450;9.254;2023-10-19T15:24:35;4.17;;;2.23;;
10904;SDS011;5505;51.450;9.254;2023-10-19T15:27:23;5.45;;;2.40;;
10904;SDS011;5505;51.450;9.254;2023-10-19T15:30:11;5.57;;;2.40;;
10904;SDS011;5505;51.450;9.254;2023-10-19T15:32:58;5.27;;;2.40;;
10904;SDS011;5505;51.450;9.254;2023-10-19T15:35:47;3.47;;;2.17;;
10904;SDS011;5505;51.450;9.254;2023-10-19T15:38:34;3.03;;;2.17;;
10904;SDS011;5505;51.450;9.254;2023-10-19T15:41:20;2.47;;;2.10;;
10904;SDS011;5505;51.450;9.254;2023-10-19T15:44:08;4.00;;;2.23;;
10904;SDS011;5505;51.450;9.254;2023-10-19T15:46:55;3.37;;;2.10;;
10904;SDS011;5505;51.450;9.254;2023-10-19T15:49:45;4.40;;;2.37;;
10904;SDS011;5505;51.450;9.254;2023-10-19T15:52:34;3.83;;;2.40;;
10904;SDS011;5505;51.450;9.254;2023-10-19T15:55:25;3.30;;;2.07;;
10904;SDS011;5505;51.450;9.254;2023-10-19T15:58:12;3.70;;;2.20;;
10904;SDS011;5505;51.450;9.254;2023-10-19T16:01:00;5.07;;;2.00;;
10904;SDS011;5505;51.450;9.254;2023-10-19T16:03:48;5.90;;;2.20;;
10904;SDS011;5505;51.450;9.254;2023-10-19T16:06:35;4.37;;;2.27;;
10904;SDS011;5505;51.450;9.254;2023-10-19T16:09:22;2.70;;;2.10;;
10904;SDS011;5505;51.450;9.254;2023-10-19T16:12:10;4.37;;;2.40;;
10904;SDS011;5505;51.450;9.254;2023-10-19T16:14:57;3.50;;;2.30;;
10904;SDS011;5505;51.450;9.254;2023-10-19T16:17:45;4.63;;;2.63;;
10904;SDS011;5505;51.450;9.254;2023-10-19T16:20:33;4.23;;;2.57;;
10904;SDS011;5505;51.450;9.254;2023-10-19T16:23:20;3.63;;;2.43;;
10904;SDS011;5505;51.450;9.254;2023-10-19T16:26:07;2.63;;;2.30;;
10904;SDS011;5505;51.450;9.254;2023-10-19T16:28:54;3.93;;;2.60;;
10904;SDS011;5505;51.450;9.254;2023-10-19T16:31:41;2.60;;;2.37;;
10904;SDS011;5505;51.450;9.254;2023-10-19T16:34:30;5.27;;;2.90;;
10904;SDS011;5505;51.450;9.254;2023-10-19T16:37:16;6.63;;;2.97;;
10904;SDS011;5505;51.450;9.254;2023-10-19T16:40:04;5.80;;;2.80;;
10904;SDS011;5505;51.450;9.254;2023-10-19T16:42:51;6.77;;;3.30;;
10904;SDS011;5505;51.450;9.254;2023-10-19T16:45:38;6.47;;;3.10;;
10904;SDS011;5505;51.450;9.254;2023-10-19T16:48:25;3.67;;;3.10;;
10904;SDS011;5505;51.450;9.254;2023-10-19T16:51:13;3.23;;;2.77;;
10904;SDS011;5505;51.450;9.254;2023-10-19T16:54:00;3.40;;;2.93;;
10904;SDS011;5505;51.450;9.254;2023-10-19T16:56:48;4.13;;;3.20;;
10904;SDS011;5505;51.450;9.254;2023-10-19T16:59:36;4.03;;;3.13;;
10904;SDS011;5505;51.450;9.254;2023-10-19T17:02:23;5.73;;;3.57;;
10904;SDS011;5505;51.450;9.254;2023-10-19T17:05:10;6.73;;;3.90;;
10904;SDS011;5505;51.450;9.254;2023-10-19T17:07:58;6.47;;;4.23;;
10904;SDS011;5505;51.450;9.254;2023-10-19T17:10:45;6.27;;;4.10;;
10904;SDS011;5505;51.450;9.254;2023-10-19T17:13:32;6.80;;;4.67;;